Time;durP1;ratioP1;P1;durP2;ratioP2;P2;SDS_P1;SDS_P2;PMS_P1;PMS_P2;Temp;Humidity;BMP_temperature;BMP_pressure;BME280_temperature;BME280_humidity;BME280_pressure;Samples;Min_cycle;Max_cycle;Signal;HPM_P1;HPM_P2
2021/12/24 00:00:42;;;;;;;;;;;;;;;;;;;;;
2021/12/24 01:04:24;;;;;;;;;;;;;;;;;;;;;
2021/12/24 01:07:09;;;;;;;;;;;5.70;99.90;;;;;;4939972;29;20010;-93
2021/12/24 01:10:29;;;;;;;;;;;;;;;;;;;;;
2021/12/24 01:19:19;;;;;;;;;;;;;;;;;;;;;
2021/12/24 01:40:50;;;;;;;;;;;5.20;99.90;;;;;;4945539;28;19925;-91
2021/12/24 01:43:43;;;;;;;;;;;;;;;;;;;;;
2021/12/24 01:46:17;;;;;;;;;;;6.10;99.90;;;;;;4953263;28;19929;-94
2021/12/24 01:48:47;;;;;;;;;;;6.20;99.90;;;;;;4927633;28;20266;-92
2021/12/24 01:51:34;;;;;;;;;;;;;;;;;;;;;
2021/12/24 01:54:14;;;;;;;;;;;;;;;;;;;;;
2021/12/24 01:57:00;;;;;;;;;;;6.20;99.90;;;;;;4943544;28;19952;-93
2021/12/24 02:05:48;;;;;;;;;;;6.30;99.90;;;;;;4948421;28;19922;-93
2021/12/24 02:08:31;;;;;;;;;;;;;;;;;;;;;
2021/12/24 02:11:29;;;;;;;;;;;;;;;;;;;;;
2021/12/24 02:14:23;;;;;;;;;;;6.30;99.90;;;;;;4960651;28;19926;-94
2021/12/24 02:18:15;;;;;;;;;;;;;;;;;;;;;
2021/12/24 02:29:08;;;;;;;;;;;6.70;99.90;;;;;;4957935;28;19969;-92
2021/12/24 02:32:02;;;;;;;;;;;6.50;99.90;;;;;;4927762;28;20444;-92
2021/12/24 02:34:40;;;;;;;;;;;7.20;99.90;;;;;;4942065;28;19922;-93
2021/12/24 02:37:26;;;;;;;;;;;7.40;99.90;;;;;;4926891;28;20382;-92
2021/12/24 02:40:01;;;;;;;;;;;;;;;;;;;;;
2021/12/24 02:46:08;;;;;;;;;;;6.50;99.90;;;;;;4937603;28;19922;-93
2021/12/24 02:54:23;;;;;;;;;;;;;;;;;;;;;
2021/12/24 02:57:25;;;;;;;;;;;;;;;;;;;;;
2021/12/24 03:01:04;;;;;;;;;;;;;;;;;;;;;
2021/12/24 03:03:29;;;;;;;;;;;;;;;;;;;;;
2021/12/24 03:09:14;;;;;;;;;;;6.70;99.90;;;;;;4934180;29;19923;-92
2021/12/24 03:12:09;;;;;;;;;;;7.60;99.90;;;;;;4924250;29;20426;-94
2021/12/24 03:15:15;;;;;;;;;;;;;;;;;;;;;
2021/12/24 03:17:57;;;;;;;;;;;6.10;99.90;;;;;;4957806;28;19923;-92
2021/12/24 03:27:15;;;;;;;;;;;;;;;;;;;;;
2021/12/24 03:30:06;;;;;;;;;;;;;;;;;;;;;
2021/12/24 03:33:03;;;;;;;;;;;;;;;;;;;;;
2021/12/24 03:36:02;;;;;;;;;;;;;;;;;;;;;
2021/12/24 03:39:14;;;;;;;;;;;;;;;;;;;;;
2021/12/24 03:45:03;;;;;;;;;;;;;;;;;;;;;
2021/12/24 03:47:51;;;;;;;;;;;7.00;99.90;;;;;;4944016;28;20391;-93
2021/12/24 03:57:15;;;;;;;;;;;7.40;99.90;;;;;;4922803;29;19929;-93
2021/12/24 04:03:25;;;;;;;;;;;7.60;99.90;;;;;;4957189;28;19934;-93
2021/12/24 04:06:01;;;;;;;;;;;7.70;99.90;;;;;;4943343;29;19972;-93
2021/12/24 04:08:43;;;;;;;;;;;;;;;;;;;;;
2021/12/24 04:11:39;;;;;;;;;;;;;;;;;;;;;
2021/12/24 04:14:29;;;;;;;;;;;7.80;99.90;;;;;;4957700;28;19926;-93
2021/12/24 04:17:19;;;;;;;;;;;7.90;99.90;;;;;;4943005;28;19929;-96
2021/12/24 04:26:33;;;;;;;;;;;;;;;;;;;;;
2021/12/24 04:29:26;;;;;;;;;;;;;;;;;;;;;
2021/12/24 04:32:33;;;;;;;;;;;;;;;;;;;;;
2021/12/24 04:35:15;;;;;;;;;;;8.10;99.90;;;;;;4955624;28;19922;-92
2021/12/24 05:10:34;;;;;;;;;;;;;;;;;;;;;
2021/12/24 05:13:36;;;;;;;;;;;8.20;99.90;;;;;;4956682;28;20275;-95
2021/12/24 05:22:33;;;;;;;;;;;8.30;99.90;;;;;;4942074;29;19942;-93
2021/12/24 05:25:18;;;;;;;;;;;;;;;;;;;;;
2021/12/24 05:28:11;;;;;;;;;;;8.30;99.90;;;;;;4942414;28;20021;-95
2021/12/24 05:33:55;;;;;;;;;;;8.20;99.90;;;;;;4943013;28;19927;-96
2021/12/24 05:36:47;;;;;;;;;;;8.30;99.90;;;;;;4923490;29;19933;-93
2021/12/24 05:39:29;;;;;;;;;;;8.30;99.90;;;;;;4941290;29;19923;-94
2021/12/24 05:42:25;;;;;;;;;;;8.40;99.90;;;;;;4942091;28;20400;-94
2021/12/24 05:45:40;;;;;;;;;;;;;;;;;;;;;
2021/12/24 05:51:36;;;;;;;;;;;;;;;;;;;;;
2021/12/24 05:54:29;;;;;;;;;;;;;;;;;;;;;
2021/12/24 05:57:31;;;;;;;;;;;;;;;;;;;;;
2021/12/24 06:00:22;;;;;;;;;;;8.20;99.90;;;;;;4955503;28;19930;-93
2021/12/24 06:03:21;;;;;;;;;;;8.50;99.90;;;;;;4900995;29;20025;-93
2021/12/24 06:06:09;;;;;;;;;;;8.30;99.90;;;;;;4884453;29;20011;-94
2021/12/24 06:09:26;;;;;;;;;;;;;;;;;;;;;
2021/12/24 06:12:37;;;;;;;;;;;;;;;;;;;;;
2021/12/24 06:15:40;;;;;;;;;;;;;;;;;;;;;
2021/12/24 06:31:06;;;;;;;;;;;8.30;99.90;;;;;;4930638;29;19974;-94
2021/12/24 06:36:52;;;;;;;;;;;8.10;99.90;;;;;;4951628;28;19941;-94
2021/12/24 06:42:58;;;;;;;;;;;;;;;;;;;;;
2021/12/24 06:46:13;;;;;;;;;;;8.10;99.90;;;;;;4952872;28;19922;-95
2021/12/24 06:49:30;;;;;;;;;;;;;;;;;;;;;
2021/12/24 06:52:26;;;;;;;;;;;8.70;99.90;;;;;;4907601;29;19933;-95
2021/12/24 06:58:41;;;;;;;;;;;8.40;99.90;;;;;;4881345;29;19931;-96
2021/12/24 07:01:35;;;;;;;;;;;;;;;;;;;;;
2021/12/24 07:04:12;;;;;;;;;;;8.10;99.90;;;;;;4900412;29;19927;-93
2021/12/24 07:07:16;;;;;;;;;;;8.00;99.90;;;;;;4871041;29;19924;-93
2021/12/24 07:13:28;;;;;;;;;;;;;;;;;;;;;
2021/12/24 07:16:27;;;;;;;;;;;;;;;;;;;;;
2021/12/24 07:19:33;;;;;;;;;;;7.90;99.90;;;;;;4938751;29;20014;-93
2021/12/24 07:22:34;;;;;;;;;;;;;;;;;;;;;
2021/12/24 07:25:14;;;;;;;;;;;8.50;99.90;;;;;;4927205;29;19926;-93
2021/12/24 07:28:12;;;;;;;;;;;;;;;;;;;;;
2021/12/24 07:30:40;;;;;;;;;;;7.90;99.90;;;;;;4925458;29;19970;-93
2021/12/24 07:33:16;;;;;;;;;;;7.90;99.90;;;;;;4909025;29;19982;-94
2021/12/24 07:35:48;;;;;;;;;;;7.90;99.90;;;;;;4923239;29;19923;-94
2021/12/24 07:38:33;;;;;;;;;;;7.90;99.90;;;;;;4909122;29;20423;-94
2021/12/24 07:41:30;;;;;;;;;;;;;;;;;;;;;
2021/12/24 07:47:37;;;;;;;;;;;7.90;99.90;;;;;;4931536;29;19923;-93
2021/12/24 07:53:45;;;;;;;;;;;;;;;;;;;;;
2021/12/24 07:56:19;;;;;;;;;;;7.30;99.90;;;;;;4934126;29;20298;-95
2021/12/24 07:59:11;;;;;;;;;;;;;;;;;;;;;
2021/12/24 08:02:17;;;;;;;;;;;;;;;;;;;;;
2021/12/24 08:04:49;;;;;;;;;;;7.80;99.90;;;;;;4963388;28;19925;-93
2021/12/24 08:07:38;;;;;;;;;;;7.80;99.90;;;;;;4928541;28;20289;-93
2021/12/24 08:10:34;;;;;;;;;;;;;;;;;;;;;
2021/12/24 08:13:22;;;;;;;;;;;;;;;;;;;;;
2021/12/24 08:16:00;;;;;;;;;;;;;;;;;;;;;
2021/12/24 08:18:34;;;;;;;;;;;7.80;99.90;;;;;;4945496;28;19928;-94
2021/12/24 08:21:27;;;;;;;;;;;7.80;99.90;;;;;;4929986;28;19945;-93
2021/12/24 08:24:02;;;;;;;;;;;8.50;99.90;;;;;;4931621;28;19922;-92
2021/12/24 08:26:33;;;;;;;;;;;7.70;99.90;;;;;;4929276;28;19930;-91
2021/12/24 08:29:08;;;;;;;;;;;7.80;99.90;;;;;;4929128;28;20005;-91
2021/12/24 08:31:34;;;;;;;;;;;7.80;99.90;;;;;;4929698;28;20024;-91
2021/12/24 08:34:10;;;;;;;;;;;;;;;;;;;;;
2021/12/24 08:36:57;;;;;;;;;;;7.90;99.90;;;;;;4944424;28;19923;-92
2021/12/24 08:39:23;;;;;;;;;;;7.80;99.90;;;;;;4943187;28;19936;-90
2021/12/24 08:41:52;;;;;;;;;;;7.80;99.90;;;;;;4927292;28;19926;-89
2021/12/24 08:44:27;;;;;;;;;;;7.80;99.90;;;;;;4926736;28;19950;-90
2021/12/24 08:47:01;;;;;;;;;;;7.80;99.90;;;;;;4919381;28;19980;-91
2021/12/24 08:49:27;;;;;;;;;;;7.60;99.90;;;;;;4910252;28;20314;-92
2021/12/24 08:51:53;;;;;;;;;;;7.80;99.90;;;;;;4907398;29;19926;-90
2021/12/24 08:54:21;;;;;;;;;;;7.80;99.90;;;;;;4923260;29;19930;-90
2021/12/24 08:56:49;;;;;;;;;;;7.80;99.90;;;;;;4918382;28;19926;-89
2021/12/24 08:59:17;;;;;;;;;;;7.80;99.90;;;;;;4917723;28;19922;-90
2021/12/24 09:01:50;;;;;;;;;;;7.80;99.90;;;;;;4917286;28;19926;-90
2021/12/24 09:04:16;;;;;;;;;;;7.80;99.90;;;;;;4918211;28;19930;-91
2021/12/24 09:06:47;;;;;;;;;;;7.80;99.90;;;;;;4924520;29;19922;-91
2021/12/24 09:09:15;;;;;;;;;;;8.40;99.90;;;;;;4906725;29;19922;-90
2021/12/24 09:11:44;;;;;;;;;;;7.80;99.90;;;;;;4905144;29;19926;-90
2021/12/24 09:14:20;;;;;;;;;;;;;;;;;;;;;
2021/12/24 09:16:48;;;;;;;;;;;7.80;99.90;;;;;;4923325;28;19923;-91
2021/12/24 09:19:18;;;;;;;;;;;7.80;99.90;;;;;;4906795;29;19932;-90
2021/12/24 09:21:46;;;;;;;;;;;7.90;99.90;;;;;;4906939;29;19926;-90
2021/12/24 09:24:18;;;;;;;;;;;7.80;99.90;;;;;;4906523;29;19950;-91
2021/12/24 09:26:45;;;;;;;;;;;7.90;99.90;;;;;;4906841;29;19926;-89
2021/12/24 09:29:11;;;;;;;;;;;7.90;99.90;;;;;;4906446;28;19922;-92
2021/12/24 09:31:37;;;;;;;;;;;7.90;99.90;;;;;;4906422;29;19975;-90
2021/12/24 09:34:10;;;;;;;;;;;8.00;99.90;;;;;;4921707;29;19922;-91
2021/12/24 09:36:38;;;;;;;;;;;7.90;99.90;;;;;;4932030;28;20374;-92
2021/12/24 09:39:08;;;;;;;;;;;7.90;99.90;;;;;;4908673;29;19965;-91
2021/12/24 09:41:44;;;;;;;;;;;9.20;99.90;;;;;;4906235;28;20003;-90
2021/12/24 09:44:17;;;;;;;;;;;7.80;99.90;;;;;;4922202;29;19923;-90
2021/12/24 09:46:43;;;;;;;;;;;8.40;99.90;;;;;;4907125;29;19922;-90
2021/12/24 09:49:09;;;;;;;;;;;8.00;99.90;;;;;;4905961;29;19965;-90
2021/12/24 09:51:40;;;;;;;;;;;8.10;99.90;;;;;;4921277;29;20017;-91
2021/12/24 09:54:24;;;;;;;;;;;8.00;99.90;;;;;;4906039;28;19973;-90
2021/12/24 09:57:01;;;;;;;;;;;8.10;99.90;;;;;;4921698;29;20256;-91
2021/12/24 09:59:29;;;;;;;;;;;7.50;99.90;;;;;;4922260;29;19973;-89
2021/12/24 10:02:26;;;;;;;;;;;8.00;99.90;;;;;;4906788;29;19980;-90
2021/12/24 10:04:47;;;;;;;;;;;8.10;99.90;;;;;;4922807;29;19973;-90
2021/12/24 10:07:13;;;;;;;;;;;8.00;99.90;;;;;;4905948;29;19928;-89
2021/12/24 10:09:42;;;;;;;;;;;7.20;99.90;;;;;;4905608;29;19923;-90
2021/12/24 10:12:08;;;;;;;;;;;8.00;99.90;;;;;;4905550;29;20179;-90
2021/12/24 10:14:40;;;;;;;;;;;8.00;99.90;;;;;;4937009;29;19926;-90
2021/12/24 10:17:16;;;;;;;;;;;8.00;99.90;;;;;;4921794;29;19985;-91
2021/12/24 10:19:53;;;;;;;;;;;;;;;;;;;;;
2021/12/24 10:22:26;;;;;;;;;;;8.00;99.90;;;;;;4923062;29;19929;-92
2021/12/24 10:24:57;;;;;;;;;;;7.90;99.90;;;;;;4907515;29;19934;-91
2021/12/24 10:27:27;;;;;;;;;;;7.80;99.90;;;;;;4937556;28;20275;-92
2021/12/24 10:29:52;;;;;;;;;;;7.60;99.90;;;;;;4906223;29;19926;-91
2021/12/24 10:32:19;;;;;;;;;;;7.40;99.90;;;;;;4921039;29;20351;-91
2021/12/24 10:34:47;;;;;;;;;;;7.20;99.90;;;;;;4906186;29;19985;-90
2021/12/24 10:37:26;;;;;;;;;;;6.70;99.90;;;;;;4905540;29;19930;-91
2021/12/24 10:39:56;;;;;;;;;;;6.80;99.90;;;;;;4905553;28;19922;-91
2021/12/24 10:42:37;;;;;;;;;;;6.70;99.90;;;;;;4907252;28;20013;-90
2021/12/24 10:45:11;;;;;;;;;;;6.60;99.90;;;;;;4925264;28;20278;-91
2021/12/24 10:47:39;;;;;;;;;;;6.50;99.90;;;;;;4930232;28;20387;-91
2021/12/24 10:50:28;;;;;;;;;;;6.50;99.90;;;;;;4916466;28;20366;-91
2021/12/24 10:55:43;;;;;;;;;;;6.40;99.90;;;;;;4929634;28;20322;-91
2021/12/24 10:58:14;;;;;;;;;;;6.30;99.90;;;;;;4931205;28;20386;-91
2021/12/24 11:00:54;;;;;;;;;;;6.20;99.90;;;;;;4915481;28;19922;-91
2021/12/24 11:03:27;;;;;;;;;;;6.20;99.90;;;;;;4937998;28;19926;-91
2021/12/24 11:06:02;;;;;;;;;;;6.20;99.90;;;;;;4937214;28;20338;-90
2021/12/24 11:08:30;;;;;;;;;;;6.20;99.90;;;;;;4953832;28;20289;-91
2021/12/24 11:10:56;;;;;;;;;;;6.00;99.90;;;;;;4924455;28;19922;-91
2021/12/24 11:13:29;;;;;;;;;;;6.10;99.90;;;;;;4924124;28;19926;-91
2021/12/24 11:16:05;;;;;;;;;;;;;;;;;;;;;
2021/12/24 11:18:39;;;;;;;;;;;6.20;99.90;;;;;;4940637;28;19922;-91
2021/12/24 11:21:26;;;;;;;;;;;6.20;99.90;;;;;;4924038;28;20243;-91
2021/12/24 11:24:12;;;;;;;;;;;6.20;99.90;;;;;;4924440;28;19922;-90
2021/12/24 11:26:51;;;;;;;;;;;5.90;99.90;;;;;;4942158;28;19933;-91
2021/12/24 11:29:26;;;;;;;;;;;6.60;99.90;;;;;;4941896;28;20008;-91
2021/12/24 11:32:04;;;;;;;;;;;;;;;;;;;;;
2021/12/24 11:34:36;;;;;;;;;;;6.40;99.90;;;;;;4943202;28;19926;-90
2021/12/24 11:37:11;;;;;;;;;;;;;;;;;;;;;
2021/12/24 11:39:49;;;;;;;;;;;;;;;;;;;;;
2021/12/24 11:42:18;;;;;;;;;;;7.00;99.90;;;;;;4945002;28;19930;-92
2021/12/24 11:44:46;;;;;;;;;;;6.30;99.90;;;;;;4927882;28;19949;-92
2021/12/24 11:47:11;;;;;;;;;;;6.90;99.90;;;;;;4943353;28;19956;-92
2021/12/24 11:49:46;;;;;;;;;;;6.40;99.90;;;;;;4927350;28;20010;-92
2021/12/24 11:52:14;;;;;;;;;;;7.00;99.90;;;;;;4927856;28;19926;-92
2021/12/24 11:54:42;;;;;;;;;;;7.30;99.90;;;;;;4917121;28;19922;-92
2021/12/24 12:00:16;;;;;;;;;;;6.50;99.90;;;;;;4924823;28;20275;-92
2021/12/24 12:03:04;;;;;;;;;;;6.40;99.90;;;;;;4916397;28;19927;-92
2021/12/24 12:05:42;;;;;;;;;;;;;;;;;;;;;
2021/12/24 12:08:20;;;;;;;;;;;6.20;99.90;;;;;;4938334;28;19929;-92
2021/12/24 12:10:55;;;;;;;;;;;6.20;99.90;;;;;;4937011;28;19922;-92
2021/12/24 12:13:59;;;;;;;;;;;6.20;99.90;;;;;;4934129;28;19962;-92
2021/12/24 12:16:43;;;;;;;;;;;6.20;99.90;;;;;;4893929;29;20005;-93
2021/12/24 12:19:24;;;;;;;;;;;6.10;99.90;;;;;;4931451;28;20370;-93
2021/12/24 12:22:17;;;;;;;;;;;6.20;99.90;;;;;;4950136;28;20053;-93
2021/12/24 12:27:17;;;;;;;;;;;6.20;99.90;;;;;;4933282;28;19923;-93
2021/12/24 12:32:51;;;;;;;;;;;;;;;;;;;;;
2021/12/24 12:35:43;;;;;;;;;;;6.60;99.90;;;;;;4940126;29;20288;-93
2021/12/24 12:38:30;;;;;;;;;;;7.20;99.90;;;;;;4939851;29;19938;-93
2021/12/24 12:41:17;;;;;;;;;;;6.00;99.90;;;;;;4943471;28;20001;-93
2021/12/24 12:43:53;;;;;;;;;;;7.10;99.90;;;;;;4954519;28;19947;-94
2021/12/24 21:00:19;;;;;;;;;;;1.10;99.90;;;;;;5000334;28;19996;-94
2021/12/24 21:03:33;;;;;;;;;;;;;;;;;;;;;
